createdAt,value
2018-07-04T00:02:28.296Z,2.85
2018-07-04T00:05:12.975Z,3.20
2018-07-04T00:07:57.702Z,2.72
2018-07-04T00:10:42.456Z,3.17
2018-07-04T00:13:27.192Z,3.15
2018-07-04T00:16:11.947Z,3.02
2018-07-04T00:18:56.623Z,2.50
2018-07-04T00:21:41.387Z,3.15
2018-07-04T00:24:26.215Z,3.00
2018-07-04T00:27:11.026Z,2.92
2018-07-04T00:29:55.675Z,2.50
2018-07-04T00:32:40.592Z,2.95
2018-07-04T00:35:25.255Z,3.27
2018-07-04T00:38:09.927Z,3.20
2018-07-04T00:40:54.679Z,3.62
2018-07-04T00:43:39.456Z,3.72
2018-07-04T00:46:24.306Z,3.05
2018-07-04T00:49:08.951Z,3.45
2018-07-04T00:51:53.815Z,3.30
2018-07-04T00:54:38.587Z,2.90
2018-07-04T00:57:23.256Z,3.52
2018-07-04T01:00:07.964Z,3.05
2018-07-04T01:02:52.651Z,3.60
2018-07-04T01:05:37.512Z,3.00
2018-07-04T01:08:22.159Z,3.30
2018-07-04T01:11:06.877Z,3.37
2018-07-04T01:13:51.593Z,3.13
2018-07-04T01:16:36.194Z,3.25
2018-07-04T01:19:21.101Z,3.77
2018-07-04T01:22:05.709Z,3.12
2018-07-04T01:24:50.556Z,3.83
2018-07-04T01:27:35.406Z,3.50
2018-07-04T01:30:20.124Z,3.45
2018-07-04T01:33:04.784Z,3.67
2018-07-04T01:35:49.698Z,3.53
2018-07-04T01:38:34.476Z,3.55
2018-07-04T01:41:19.237Z,3.63
2018-07-04T01:44:04.253Z,3.43
2018-07-04T01:46:48.993Z,3.60
2018-07-04T01:49:33.861Z,3.20
2018-07-04T01:52:18.766Z,3.30
2018-07-04T01:55:03.411Z,4.17
2018-07-04T01:57:48.079Z,3.53
2018-07-04T02:00:32.795Z,3.30
2018-07-04T02:03:17.500Z,3.80
2018-07-04T02:06:02.177Z,3.33
2018-07-04T02:08:46.862Z,3.30
2018-07-04T02:11:31.624Z,3.37
2018-07-04T02:14:16.415Z,3.57
2018-07-04T02:17:01.296Z,3.40
2018-07-04T02:19:45.909Z,4.00
2018-07-04T02:22:30.611Z,3.57
2018-07-04T02:25:15.445Z,3.63
2018-07-04T02:28:00.964Z,3.70
2018-07-04T02:30:45.692Z,3.90
2018-07-04T02:33:31.430Z,3.60
2018-07-04T02:36:15.961Z,3.63
2018-07-04T02:39:00.545Z,3.90
2018-07-04T02:41:45.296Z,3.40
2018-07-04T02:44:29.968Z,3.60
2018-07-04T02:47:31.355Z,3.47
2018-07-04T02:50:16.088Z,3.87
2018-07-04T02:53:00.747Z,3.60
2018-07-04T02:55:45.388Z,4.07
2018-07-04T02:58:30.131Z,3.63
2018-07-04T03:01:14.926Z,4.10
2018-07-04T03:03:59.639Z,3.80
2018-07-04T03:06:44.258Z,3.87
2018-07-04T03:09:28.825Z,3.60
2018-07-04T03:12:13.538Z,3.60
2018-07-04T03:14:58.149Z,3.90
2018-07-04T03:17:42.897Z,3.40
2018-07-04T03:20:27.485Z,4.37
2018-07-04T03:23:12.220Z,4.07
2018-07-04T03:25:56.974Z,3.60
2018-07-04T03:28:41.623Z,4.13
2018-07-04T03:31:26.352Z,3.70
2018-07-04T03:34:11.081Z,3.73
2018-07-04T03:36:55.675Z,3.90
2018-07-04T03:39:40.476Z,3.30
2018-07-04T03:42:25.146Z,3.83
2018-07-04T03:45:09.803Z,3.70
2018-07-04T03:47:54.566Z,3.60
2018-07-04T03:50:39.293Z,4.13
2018-07-04T03:53:23.936Z,3.30
2018-07-04T03:56:08.597Z,3.80
2018-07-04T03:58:53.161Z,4.30
2018-07-04T04:01:37.847Z,3.77
2018-07-04T04:04:22.393Z,4.37
2018-07-04T04:07:07.040Z,3.90
2018-07-04T04:09:51.832Z,4.13
2018-07-04T04:12:36.500Z,3.97
2018-07-04T04:15:22.123Z,3.83
2018-07-04T04:18:06.793Z,4.80
2018-07-04T04:20:51.449Z,4.53
2018-07-04T04:23:36.101Z,4.10
2018-07-04T04:26:20.809Z,3.83
2018-07-04T04:29:05.490Z,4.43
2018-07-04T04:31:50.149Z,4.07
2018-07-04T04:34:34.717Z,3.87
2018-07-04T04:37:19.392Z,3.92
2018-07-04T04:40:04.006Z,4.47
2018-07-04T04:42:48.526Z,3.65
2018-07-04T04:45:33.263Z,4.20
2018-07-04T04:48:17.955Z,4.15
2018-07-04T04:51:02.725Z,4.08
2018-07-04T04:53:47.440Z,3.92
2018-07-04T04:56:32.020Z,4.10
2018-07-04T04:59:16.725Z,4.08
2018-07-04T05:02:01.268Z,4.25
2018-07-04T05:04:45.921Z,4.12
2018-07-04T05:07:30.591Z,4.20
2018-07-04T05:10:15.200Z,4.30
2018-07-04T05:12:59.969Z,4.65
2018-07-04T05:15:44.633Z,4.28
2018-07-04T05:18:29.189Z,4.83
2018-07-04T05:21:13.879Z,4.40
2018-07-04T05:23:58.684Z,5.22
2018-07-04T05:26:43.238Z,5.37
2018-07-04T05:29:27.873Z,5.65
2018-07-04T05:32:12.426Z,6.00
2018-07-04T05:34:57.126Z,5.65
2018-07-04T05:37:41.960Z,5.17
2018-07-04T05:40:26.667Z,5.53
2018-07-04T05:43:11.230Z,5.95
2018-07-04T05:45:55.894Z,5.62
2018-07-04T05:48:40.587Z,5.15
2018-07-04T05:51:25.360Z,4.83
2018-07-04T05:54:09.972Z,5.65
2018-07-04T05:56:54.645Z,4.87
2018-07-04T05:59:39.320Z,4.20
2018-07-04T06:02:23.997Z,4.55
2018-07-04T06:05:08.600Z,4.17
2018-07-04T06:07:53.382Z,4.50
2018-07-04T06:10:38.041Z,4.40
2018-07-04T06:13:22.836Z,4.35
2018-07-04T06:16:07.438Z,5.00
2018-07-04T06:18:52.108Z,4.03
2018-07-04T06:21:36.807Z,4.80
2018-07-04T06:24:21.345Z,4.05
2018-07-04T06:27:05.910Z,4.47
2018-07-04T06:29:50.417Z,5.15
2018-07-04T06:32:35.070Z,3.67
2018-07-04T06:35:19.687Z,4.15
2018-07-04T06:37:51.944Z,3.58
2018-07-04T06:40:24.218Z,4.05
2018-07-04T06:42:56.576Z,3.90
2018-07-04T06:45:28.872Z,4.25
2018-07-04T06:48:01.126Z,3.62
2018-07-04T06:50:33.462Z,3.95
2018-07-04T06:53:05.716Z,3.90
2018-07-04T06:55:37.991Z,4.05
2018-07-04T06:58:10.228Z,3.75
2018-07-04T07:00:42.512Z,3.95
2018-07-04T07:03:27.098Z,3.80
2018-07-04T07:06:11.756Z,4.20
2018-07-04T07:08:56.356Z,4.53
2018-07-04T07:11:41.098Z,4.08
2018-07-04T07:14:25.779Z,3.75
2018-07-04T07:17:10.217Z,3.85
2018-07-04T07:19:54.910Z,3.50
2018-07-04T07:22:39.559Z,3.67
2018-07-04T07:25:24.060Z,3.45
2018-07-04T07:28:08.837Z,3.87
2018-07-04T07:30:53.398Z,4.05
2018-07-04T07:33:37.972Z,3.50
2018-07-04T07:36:22.728Z,3.25
2018-07-04T07:39:07.463Z,3.67
2018-07-04T07:41:52.178Z,3.05
2018-07-04T07:44:36.722Z,3.15
2018-07-04T07:47:21.190Z,3.83
2018-07-04T07:50:05.935Z,3.12
2018-07-04T07:52:50.589Z,3.10
2018-07-04T07:55:35.144Z,3.72
2018-07-04T07:58:19.887Z,3.00
2018-07-04T08:01:04.443Z,3.17
2018-07-04T08:03:49.119Z,2.75
2018-07-04T08:06:33.700Z,3.83
2018-07-04T08:09:18.281Z,3.75
2018-07-04T08:12:03.463Z,3.05
2018-07-04T08:14:48.156Z,3.17
2018-07-04T08:17:32.869Z,3.27
2018-07-04T08:20:17.535Z,3.15
2018-07-04T08:23:02.330Z,3.25
2018-07-04T08:25:46.969Z,2.77
2018-07-04T08:28:31.602Z,3.42
2018-07-04T08:31:16.301Z,2.85
2018-07-04T08:34:00.968Z,3.12
2018-07-04T08:36:45.635Z,3.75
2018-07-04T08:39:30.314Z,2.55
2018-07-04T08:42:15.058Z,3.05
2018-07-04T08:44:59.687Z,3.17
2018-07-04T08:47:44.352Z,3.40
2018-07-04T08:50:29.040Z,3.65
2018-07-04T08:53:13.718Z,2.80
2018-07-04T08:55:58.329Z,2.92
2018-07-04T08:58:43.068Z,2.65
2018-07-04T09:01:28.369Z,3.35
2018-07-04T09:04:13.012Z,3.12
2018-07-04T09:06:57.694Z,3.22
2018-07-04T09:09:42.404Z,3.10
2018-07-04T09:12:27.067Z,2.98
2018-07-04T09:15:11.626Z,2.95
2018-07-04T09:17:56.314Z,3.50
2018-07-04T09:20:41.052Z,3.02
2018-07-04T09:23:25.755Z,3.02
2018-07-04T09:26:10.799Z,3.20
2018-07-04T09:28:55.248Z,2.70
2018-07-04T09:31:39.827Z,2.87
2018-07-04T09:34:24.364Z,3.22
2018-07-04T09:37:09.122Z,2.45
2018-07-04T09:39:53.646Z,3.17
2018-07-04T09:42:38.392Z,2.80
2018-07-04T09:45:23.399Z,3.25
2018-07-04T09:48:07.858Z,3.20
2018-07-04T09:50:52.805Z,3.00
2018-07-04T09:53:37.616Z,3.20
2018-07-04T09:56:22.130Z,3.08
2018-07-04T09:59:06.860Z,2.75
2018-07-04T10:01:51.415Z,3.12
2018-07-04T10:04:35.935Z,2.92
2018-07-04T10:07:20.576Z,2.52
2018-07-04T10:10:05.225Z,2.47
2018-07-04T10:12:49.849Z,2.70
2018-07-04T10:15:34.504Z,2.87
2018-07-04T10:18:19.156Z,2.75
2018-07-04T10:21:03.751Z,2.62
2018-07-04T10:23:48.415Z,2.75
2018-07-04T10:26:33.054Z,2.52
2018-07-04T10:29:17.673Z,2.30
2018-07-04T10:32:02.377Z,3.25
2018-07-04T10:34:47.148Z,2.87
2018-07-04T10:37:31.998Z,2.72
2018-07-04T10:40:16.534Z,2.65
2018-07-04T10:43:01.163Z,2.40
2018-07-04T10:45:45.580Z,2.62
2018-07-04T10:48:30.239Z,2.35
2018-07-04T10:51:15.012Z,2.60
2018-07-04T10:53:59.768Z,2.50
2018-07-04T10:56:44.510Z,2.20
2018-07-04T10:59:29.162Z,2.40
2018-07-04T11:02:13.760Z,2.08
2018-07-04T11:04:58.644Z,2.65
2018-07-04T11:07:43.444Z,3.10
2018-07-04T11:10:28.111Z,2.47
2018-07-04T11:13:12.668Z,2.52
2018-07-04T11:15:57.400Z,2.42
2018-07-04T11:18:42.095Z,2.08
2018-07-04T11:21:27.040Z,2.35
2018-07-04T11:24:11.648Z,2.33
2018-07-04T11:26:56.312Z,3.10
2018-07-04T11:29:41.078Z,2.50
2018-07-04T11:32:25.785Z,2.20
2018-07-04T11:35:10.528Z,2.40
2018-07-04T11:37:55.147Z,2.10
2018-07-04T11:40:39.761Z,2.50
2018-07-04T11:43:24.444Z,2.60
2018-07-04T11:45:58.852Z,2.40
2018-07-04T11:48:31.116Z,2.30
2018-07-04T11:51:03.369Z,2.47
2018-07-04T11:53:35.667Z,2.95
2018-07-04T11:56:07.933Z,2.85
2018-07-04T11:58:40.184Z,2.45
2018-07-04T12:01:12.439Z,2.60
2018-07-04T12:03:57.023Z,2.60
2018-07-04T12:06:41.689Z,3.02
2018-07-04T12:09:13.986Z,2.95
2018-07-04T12:11:46.388Z,2.70
2018-07-04T12:14:18.675Z,2.62
2018-07-04T12:16:50.921Z,2.67
2018-07-04T12:19:23.385Z,2.70
2018-07-04T12:21:55.635Z,2.70
2018-07-04T12:24:27.915Z,3.50
2018-07-04T12:27:00.232Z,2.50
2018-07-04T12:29:32.482Z,2.87
2018-07-04T12:32:04.764Z,2.58
2018-07-04T12:34:37.017Z,2.58
2018-07-04T12:37:09.251Z,2.95
2018-07-04T12:39:41.529Z,3.62
2018-07-04T12:42:13.799Z,2.98
2018-07-04T12:44:46.083Z,2.87
2018-07-04T12:47:18.384Z,2.30
2018-07-04T12:49:50.620Z,2.67
2018-07-04T12:52:22.867Z,3.20
2018-07-04T12:55:11.297Z,2.70
2018-07-04T12:57:55.749Z,2.80
2018-07-04T13:00:40.496Z,2.40
2018-07-04T13:03:24.929Z,2.02
2018-07-04T13:06:09.536Z,2.40
2018-07-04T13:08:54.068Z,2.87
2018-07-04T13:11:38.767Z,2.37
2018-07-04T13:14:23.358Z,2.58
2018-07-04T13:17:08.256Z,2.65
2018-07-04T13:19:52.879Z,2.37
2018-07-04T13:22:37.555Z,2.95
2018-07-04T13:25:22.219Z,2.20
2018-07-04T13:28:06.980Z,2.42
2018-07-04T13:30:51.393Z,2.58
2018-07-04T13:33:36.104Z,2.55
2018-07-04T13:36:20.603Z,2.50
2018-07-04T13:39:05.703Z,2.50
2018-07-04T13:41:50.358Z,2.55
2018-07-04T13:44:35.009Z,2.50
2018-07-04T13:47:19.667Z,2.58
2018-07-04T13:50:04.652Z,2.40
2018-07-04T13:52:49.542Z,2.45
2018-07-04T13:55:34.128Z,2.77
2018-07-04T13:58:18.872Z,2.30
2018-07-04T14:01:03.569Z,2.22
2018-07-04T14:03:48.449Z,2.45
2018-07-04T14:06:33.036Z,2.33
2018-07-04T14:09:18.222Z,2.50
2018-07-04T14:12:02.839Z,2.30
2018-07-04T14:14:47.539Z,2.30
2018-07-04T14:17:32.311Z,2.37
2018-07-04T14:20:17.035Z,2.37
2018-07-04T14:23:01.627Z,2.65
2018-07-04T14:25:46.343Z,2.40
2018-07-04T14:28:31.191Z,2.60
2018-07-04T14:31:15.842Z,2.55
2018-07-04T14:34:00.451Z,2.40
2018-07-04T14:36:45.103Z,2.22
2018-07-04T14:39:29.815Z,2.58
2018-07-04T14:42:14.683Z,2.55
2018-07-04T14:44:59.402Z,2.50
2018-07-04T14:47:44.319Z,2.62
2018-07-04T14:50:29.457Z,2.42
2018-07-04T14:53:14.731Z,2.77
2018-07-04T14:56:00.669Z,2.85
2018-07-04T14:58:45.874Z,2.30
2018-07-04T15:01:31.027Z,2.47
2018-07-04T15:04:16.230Z,2.47
2018-07-04T15:07:01.377Z,2.62
2018-07-04T15:09:45.927Z,2.80
2018-07-04T15:12:31.180Z,2.20
2018-07-04T15:15:16.074Z,2.80
2018-07-04T15:18:01.275Z,2.50
2018-07-04T15:20:46.003Z,2.30
2018-07-04T15:23:30.821Z,2.50
2018-07-04T15:26:15.852Z,2.52
2018-07-04T15:29:00.481Z,2.35
2018-07-04T15:31:45.474Z,2.45
2018-07-04T15:34:30.794Z,2.33
2018-07-04T15:37:15.234Z,2.50
2018-07-04T15:40:00.164Z,2.58
2018-07-04T15:42:45.449Z,2.42
2018-07-04T15:45:30.401Z,2.47
2018-07-04T15:48:15.107Z,2.27
2018-07-04T15:50:59.742Z,2.33
2018-07-04T15:53:44.544Z,2.47
2018-07-04T15:56:29.078Z,2.62
2018-07-04T15:59:13.813Z,2.60
2018-07-04T16:01:58.396Z,2.55
2018-07-04T16:04:43.098Z,2.10
2018-07-04T16:07:27.832Z,2.47
2018-07-04T16:10:12.917Z,2.58
2018-07-04T16:12:57.569Z,2.27
2018-07-04T16:15:42.367Z,2.60
2018-07-04T16:18:27.113Z,2.30
2018-07-04T16:21:11.726Z,2.45
2018-07-04T16:23:56.520Z,2.22
2018-07-04T16:26:41.395Z,2.33
2018-07-04T16:29:26.114Z,2.67
2018-07-04T16:32:10.866Z,2.50
2018-07-04T16:34:55.535Z,2.50
2018-07-04T16:37:40.190Z,2.90
2018-07-04T16:40:24.930Z,2.75
2018-07-04T16:43:09.738Z,2.52
2018-07-04T16:45:54.890Z,2.80
2018-07-04T16:48:39.360Z,2.45
2018-07-04T16:51:24.168Z,2.15
2018-07-04T16:54:08.804Z,2.83
2018-07-04T16:56:53.562Z,2.70
2018-07-04T16:59:38.278Z,2.33
2018-07-04T17:02:22.882Z,2.27
2018-07-04T17:05:07.603Z,2.65
2018-07-04T17:07:52.282Z,2.40
2018-07-04T17:10:37.148Z,2.42
2018-07-04T17:13:22.033Z,2.60
2018-07-04T17:16:06.958Z,2.92
2018-07-04T17:18:51.560Z,2.30
2018-07-04T17:21:36.386Z,2.50
2018-07-04T17:24:21.138Z,2.50
2018-07-04T17:27:05.941Z,2.52
2018-07-04T17:29:50.665Z,2.70
2018-07-04T17:32:35.236Z,2.50
2018-07-04T17:35:19.895Z,2.15
2018-07-04T17:38:04.802Z,2.40
2018-07-04T17:40:49.490Z,2.62
2018-07-04T17:43:34.312Z,2.50
2018-07-04T17:46:19.236Z,2.40
2018-07-04T17:49:03.888Z,2.40
2018-07-04T17:51:48.609Z,2.60
2018-07-04T17:54:33.376Z,2.35
2018-07-04T17:57:18.067Z,2.60
2018-07-04T18:00:02.798Z,2.65
2018-07-04T18:02:47.599Z,2.47
2018-07-04T18:05:32.393Z,2.17
2018-07-04T18:08:17.033Z,2.50
2018-07-04T18:11:01.800Z,2.75
2018-07-04T18:13:46.512Z,2.55
2018-07-04T18:16:31.286Z,2.35
2018-07-04T18:19:16.037Z,2.35
2018-07-04T18:22:00.859Z,2.85
2018-07-04T18:24:45.532Z,2.05
2018-07-04T18:27:30.117Z,2.47
2018-07-04T18:30:14.910Z,2.80
2018-07-04T18:32:59.656Z,2.50
2018-07-04T18:35:44.345Z,1.90
2018-07-04T18:38:28.956Z,2.47
2018-07-04T18:41:13.503Z,2.35
2018-07-04T18:43:58.284Z,2.42
2018-07-04T18:46:42.941Z,2.45
2018-07-04T18:49:27.601Z,2.58
2018-07-04T18:52:12.283Z,2.35
2018-07-04T18:54:57.056Z,2.70
2018-07-04T18:57:41.525Z,2.72
2018-07-04T19:00:26.107Z,2.72
2018-07-04T19:03:10.695Z,2.30
2018-07-04T19:05:55.292Z,2.35
2018-07-04T19:08:39.854Z,2.55
2018-07-04T19:11:24.648Z,2.75
2018-07-04T19:14:09.438Z,2.60
2018-07-04T19:16:54.213Z,2.30
2018-07-04T19:19:38.902Z,2.70
2018-07-04T19:22:23.502Z,2.30
2018-07-04T19:25:08.026Z,2.83
2018-07-04T19:27:52.679Z,2.65
2018-07-04T19:30:37.259Z,2.40
2018-07-04T19:33:22.108Z,2.20
2018-07-04T19:36:08.108Z,2.37
2018-07-04T19:38:52.672Z,2.30
2018-07-04T19:41:37.925Z,2.47
2018-07-04T19:44:22.505Z,2.15
2018-07-04T19:47:07.419Z,2.22
2018-07-04T19:49:52.451Z,1.85
2018-07-04T19:52:37.139Z,2.35
2018-07-04T19:55:21.729Z,2.08
2018-07-04T19:58:07.028Z,2.17
2018-07-04T20:00:51.843Z,2.20
2018-07-04T20:03:36.988Z,2.40
2018-07-04T20:06:23.057Z,2.35
2018-07-04T20:09:08.336Z,2.47
2018-07-04T20:11:53.511Z,2.20
2018-07-04T20:14:38.612Z,2.05
2018-07-04T20:17:23.870Z,2.58
2018-07-04T20:20:08.839Z,2.10
2018-07-04T20:22:53.818Z,2.33
2018-07-04T20:25:39.020Z,1.92
2018-07-04T20:28:23.937Z,2.25
2018-07-04T20:31:08.662Z,2.30
2018-07-04T20:33:53.544Z,2.10
2018-07-04T20:36:38.561Z,2.17
2018-07-04T20:39:24.896Z,2.52
2018-07-04T20:42:09.636Z,2.17
2018-07-04T20:44:54.430Z,2.10
2018-07-04T20:47:39.146Z,1.85
2018-07-04T20:50:23.639Z,2.08
2018-07-04T20:53:08.352Z,2.30
2018-07-04T20:55:53.119Z,2.30
2018-07-04T20:58:38.260Z,2.27
2018-07-04T21:01:22.978Z,2.90
2018-07-04T21:04:07.604Z,2.50
2018-07-04T21:06:52.124Z,2.17
2018-07-04T21:09:36.775Z,2.30
2018-07-04T21:12:21.402Z,2.70
2018-07-04T21:15:06.146Z,1.98
2018-07-04T21:17:50.629Z,2.40
2018-07-04T21:20:35.332Z,2.40
2018-07-04T21:23:19.896Z,1.98
2018-07-04T21:26:04.539Z,2.10
2018-07-04T21:28:49.185Z,2.35
2018-07-04T21:31:33.869Z,2.02
2018-07-04T21:34:18.541Z,1.85
2018-07-04T21:37:03.363Z,2.80
2018-07-04T21:39:48.064Z,2.25
2018-07-04T21:42:32.660Z,2.20
2018-07-04T21:45:17.319Z,2.30
2018-07-04T21:48:01.957Z,2.00
2018-07-04T21:50:46.692Z,2.00
2018-07-04T21:53:31.488Z,2.10
2018-07-04T21:56:16.252Z,2.20
2018-07-04T21:59:00.916Z,2.30
2018-07-04T22:01:45.663Z,2.75
2018-07-04T22:04:30.359Z,2.10
2018-07-04T22:07:15.044Z,2.00
2018-07-04T22:09:59.697Z,2.55
2018-07-04T22:12:44.343Z,1.95
2018-07-04T22:15:29.149Z,2.35
2018-07-04T22:18:13.790Z,2.40
2018-07-04T22:20:58.231Z,2.33
2018-07-04T22:23:42.866Z,2.20
2018-07-04T22:26:27.506Z,2.27
2018-07-04T22:29:12.084Z,2.25
2018-07-04T22:31:56.931Z,2.40
2018-07-04T22:34:41.427Z,2.17
2018-07-04T22:37:25.946Z,2.17
2018-07-04T22:40:10.745Z,2.42
2018-07-04T22:42:55.300Z,2.37
2018-07-04T22:45:40.720Z,2.40
2018-07-04T22:48:25.396Z,2.60
2018-07-04T22:51:09.916Z,2.92
2018-07-04T22:53:54.705Z,2.45
2018-07-04T22:56:39.458Z,2.40
2018-07-04T22:59:24.099Z,3.20
2018-07-04T23:02:08.707Z,2.50
2018-07-04T23:04:53.316Z,2.65
2018-07-04T23:07:38.656Z,2.70
2018-07-04T23:10:23.300Z,2.40
2018-07-04T23:13:08.069Z,2.80
2018-07-04T23:15:52.856Z,2.50
2018-07-04T23:18:37.424Z,2.60
2018-07-04T23:21:21.947Z,2.10
2018-07-04T23:24:06.662Z,2.45
2018-07-04T23:26:52.136Z,2.47
2018-07-04T23:29:36.731Z,2.22
2018-07-04T23:32:21.403Z,2.52
2018-07-04T23:35:06.022Z,3.02
2018-07-04T23:37:50.828Z,1.90
2018-07-04T23:40:35.641Z,2.62
2018-07-04T23:43:20.421Z,3.10
2018-07-04T23:46:05.071Z,2.45
2018-07-04T23:48:49.754Z,2.27
2018-07-04T23:51:34.460Z,2.20
2018-07-04T23:54:19.204Z,2.92
2018-07-04T23:59:48.387Z,2.47
